sensor_id;sensor_type;location;lat;lon;timestamp;P1;durP1;ratioP1;P2;durP2;ratioP2
48925;SDS011;39838;59.938;30.642;2023-04-29T00:01:22;16.15;;;8.50;;
48925;SDS011;39838;59.938;30.642;2023-04-29T00:03:50;15.02;;;8.27;;
48925;SDS011;39838;59.938;30.642;2023-04-29T00:06:17;14.73;;;8.43;;
48925;SDS011;39838;59.938;30.642;2023-04-29T00:08:45;14.40;;;9.35;;
48925;SDS011;39838;59.938;30.642;2023-04-29T00:11:12;17.95;;;10.70;;
48925;SDS011;39838;59.938;30.642;2023-04-29T00:13:40;17.63;;;10.60;;
48925;SDS011;39838;59.938;30.642;2023-04-29T00:16:07;20.83;;;11.05;;
48925;SDS011;39838;59.938;30.642;2023-04-29T00:18:35;21.50;;;11.10;;
48925;SDS011;39838;59.938;30.642;2023-04-29T00:21:02;16.98;;;10.38;;
48925;SDS011;39838;59.938;30.642;2023-04-29T00:23:31;22.33;;;10.85;;
48925;SDS011;39838;59.938;30.642;2023-04-29T00:26:00;15.63;;;9.52;;
48925;SDS011;39838;59.938;30.642;2023-04-29T00:28:27;9.02;;;5.57;;
48925;SDS011;39838;59.938;30.642;2023-04-29T00:30:54;9.02;;;5.32;;
48925;SDS011;39838;59.938;30.642;2023-04-29T00:33:22;10.13;;;6.68;;
48925;SDS011;39838;59.938;30.642;2023-04-29T00:35:49;7.85;;;4.70;;
48925;SDS011;39838;59.938;30.642;2023-04-29T00:38:17;8.10;;;4.63;;
48925;SDS011;39838;59.938;30.642;2023-04-29T00:40:45;6.55;;;4.38;;
48925;SDS011;39838;59.938;30.642;2023-04-29T00:43:14;12.25;;;5.18;;
48925;SDS011;39838;59.938;30.642;2023-04-29T00:45:41;8.43;;;5.25;;
48925;SDS011;39838;59.938;30.642;2023-04-29T00:48:08;10.80;;;5.18;;
48925;SDS011;39838;59.938;30.642;2023-04-29T00:50:35;8.45;;;3.92;;
48925;SDS011;39838;59.938;30.642;2023-04-29T00:53:03;7.88;;;3.60;;
48925;SDS011;39838;59.938;30.642;2023-04-29T00:55:30;5.68;;;3.28;;
48925;SDS011;39838;59.938;30.642;2023-04-29T00:57:59;6.40;;;4.43;;
48925;SDS011;39838;59.938;30.642;2023-04-29T01:00:28;7.20;;;3.70;;
48925;SDS011;39838;59.938;30.642;2023-04-29T01:02:56;6.47;;;3.47;;
48925;SDS011;39838;59.938;30.642;2023-04-29T01:05:24;6.82;;;3.60;;
48925;SDS011;39838;59.938;30.642;2023-04-29T01:07:55;5.18;;;3.38;;
48925;SDS011;39838;59.938;30.642;2023-04-29T01:10:38;7.50;;;3.80;;
48925;SDS011;39838;59.938;30.642;2023-04-29T01:13:12;9.73;;;3.97;;
48925;SDS011;39838;59.938;30.642;2023-04-29T01:15:45;9.48;;;4.57;;
48925;SDS011;39838;59.938;30.642;2023-04-29T01:20:47;8.25;;;4.95;;
48925;SDS011;39838;59.938;30.642;2023-04-29T01:23:15;12.88;;;6.40;;
48925;SDS011;39838;59.938;30.642;2023-04-29T01:25:43;12.68;;;6.30;;
48925;SDS011;39838;59.938;30.642;2023-04-29T01:28:13;12.13;;;7.38;;
48925;SDS011;39838;59.938;30.642;2023-04-29T01:30:48;17.98;;;7.80;;
48925;SDS011;39838;59.938;30.642;2023-04-29T01:33:20;13.00;;;7.80;;
48925;SDS011;39838;59.938;30.642;2023-04-29T01:35:59;14.20;;;8.02;;
48925;SDS011;39838;59.938;30.642;2023-04-29T01:38:39;17.38;;;8.80;;
48925;SDS011;39838;59.938;30.642;2023-04-29T01:41:13;15.02;;;8.82;;
48925;SDS011;39838;59.938;30.642;2023-04-29T01:43:45;15.10;;;9.07;;
48925;SDS011;39838;59.938;30.642;2023-04-29T01:46:16;18.20;;;9.50;;
48925;SDS011;39838;59.938;30.642;2023-04-29T01:48:44;16.95;;;10.05;;
48925;SDS011;39838;59.938;30.642;2023-04-29T01:51:11;18.08;;;10.13;;
48925;SDS011;39838;59.938;30.642;2023-04-29T01:53:38;19.73;;;12.30;;
48925;SDS011;39838;59.938;30.642;2023-04-29T01:56:06;20.65;;;11.35;;
48925;SDS011;39838;59.938;30.642;2023-04-29T01:58:35;21.73;;;11.30;;
48925;SDS011;39838;59.938;30.642;2023-04-29T02:01:02;23.80;;;10.50;;
48925;SDS011;39838;59.938;30.642;2023-04-29T02:03:29;18.63;;;10.70;;
48925;SDS011;39838;59.938;30.642;2023-04-29T02:05:56;22.42;;;10.93;;
48925;SDS011;39838;59.938;30.642;2023-04-29T02:08:23;20.75;;;11.02;;
48925;SDS011;39838;59.938;30.642;2023-04-29T02:10:51;22.90;;;10.82;;
48925;SDS011;39838;59.938;30.642;2023-04-29T02:13:19;16.67;;;11.23;;
48925;SDS011;39838;59.938;30.642;2023-04-29T02:15:48;20.95;;;11.18;;
48925;SDS011;39838;59.938;30.642;2023-04-29T02:18:15;18.23;;;11.20;;
48925;SDS011;39838;59.938;30.642;2023-04-29T02:20:42;22.80;;;11.77;;
48925;SDS011;39838;59.938;30.642;2023-04-29T02:23:10;21.58;;;11.73;;
48925;SDS011;39838;59.938;30.642;2023-04-29T02:25:38;16.15;;;10.90;;
48925;SDS011;39838;59.938;30.642;2023-04-29T02:28:05;20.05;;;10.98;;
48925;SDS011;39838;59.938;30.642;2023-04-29T02:30:32;22.50;;;11.23;;
48925;SDS011;39838;59.938;30.642;2023-04-29T02:33:00;25.00;;;10.32;;
48925;SDS011;39838;59.938;30.642;2023-04-29T02:35:27;16.13;;;9.73;;
48925;SDS011;39838;59.938;30.642;2023-04-29T02:37:55;20.90;;;10.05;;
48925;SDS011;39838;59.938;30.642;2023-04-29T02:40:22;18.90;;;9.68;;
48925;SDS011;39838;59.938;30.642;2023-04-29T02:42:51;26.75;;;10.02;;
48925;SDS011;39838;59.938;30.642;2023-04-29T02:45:18;15.48;;;8.40;;
48925;SDS011;39838;59.938;30.642;2023-04-29T02:47:45;19.98;;;8.70;;
48925;SDS011;39838;59.938;30.642;2023-04-29T02:50:14;14.18;;;8.52;;
48925;SDS011;39838;59.938;30.642;2023-04-29T02:52:41;19.02;;;8.90;;
48925;SDS011;39838;59.938;30.642;2023-04-29T02:55:08;14.25;;;8.82;;
48925;SDS011;39838;59.938;30.642;2023-04-29T02:57:36;19.40;;;9.80;;
48925;SDS011;39838;59.938;30.642;2023-04-29T03:00:03;21.17;;;9.27;;
48925;SDS011;39838;59.938;30.642;2023-04-29T03:02:32;20.38;;;9.48;;
48925;SDS011;39838;59.938;30.642;2023-04-29T03:04:59;18.08;;;8.95;;
48925;SDS011;39838;59.938;30.642;2023-04-29T03:07:28;14.38;;;9.05;;
48925;SDS011;39838;59.938;30.642;2023-04-29T03:09:55;15.50;;;8.20;;
48925;SDS011;39838;59.938;30.642;2023-04-29T03:12:22;13.93;;;8.27;;
48925;SDS011;39838;59.938;30.642;2023-04-29T03:14:49;16.42;;;8.50;;
48925;SDS011;39838;59.938;30.642;2023-04-29T03:17:17;16.73;;;7.75;;
48925;SDS011;39838;59.938;30.642;2023-04-29T03:19:44;13.00;;;7.60;;
48925;SDS011;39838;59.938;30.642;2023-04-29T03:22:11;15.93;;;7.65;;
48925;SDS011;39838;59.938;30.642;2023-04-29T03:24:40;14.02;;;7.45;;
48925;SDS011;39838;59.938;30.642;2023-04-29T03:27:07;14.52;;;7.38;;
48925;SDS011;39838;59.938;30.642;2023-04-29T03:29:34;14.82;;;7.28;;
48925;SDS011;39838;59.938;30.642;2023-04-29T03:32:02;11.07;;;6.80;;
48925;SDS011;39838;59.938;30.642;2023-04-29T03:34:29;15.77;;;7.05;;
48925;SDS011;39838;59.938;30.642;2023-04-29T03:36:56;14.27;;;7.50;;
48925;SDS011;39838;59.938;30.642;2023-04-29T03:39:24;13.15;;;7.45;;
48925;SDS011;39838;59.938;30.642;2023-04-29T03:41:53;14.48;;;7.10;;
48925;SDS011;39838;59.938;30.642;2023-04-29T03:44:21;16.10;;;7.53;;
48925;SDS011;39838;59.938;30.642;2023-04-29T03:46:48;13.32;;;7.10;;
48925;SDS011;39838;59.938;30.642;2023-04-29T03:49:15;12.38;;;7.20;;
48925;SDS011;39838;59.938;30.642;2023-04-29T03:51:42;12.60;;;7.40;;
48925;SDS011;39838;59.938;30.642;2023-04-29T03:54:10;15.70;;;8.00;;
48925;SDS011;39838;59.938;30.642;2023-04-29T03:56:38;14.20;;;7.63;;
48925;SDS011;39838;59.938;30.642;2023-04-29T03:59:06;12.32;;;7.75;;
48925;SDS011;39838;59.938;30.642;2023-04-29T04:01:34;14.85;;;7.78;;
48925;SDS011;39838;59.938;30.642;2023-04-29T04:04:01;17.45;;;8.20;;
48925;SDS011;39838;59.938;30.642;2023-04-29T04:06:28;12.02;;;7.45;;
48925;SDS011;39838;59.938;30.642;2023-04-29T04:08:55;11.13;;;7.15;;
48925;SDS011;39838;59.938;30.642;2023-04-29T04:11:22;12.82;;;7.80;;
48925;SDS011;39838;59.938;30.642;2023-04-29T04:13:50;20.80;;;7.63;;
48925;SDS011;39838;59.938;30.642;2023-04-29T04:16:18;9.10;;;5.18;;
48925;SDS011;39838;59.938;30.642;2023-04-29T04:18:45;8.38;;;4.20;;
48925;SDS011;39838;59.938;30.642;2023-04-29T04:21:12;5.97;;;3.42;;
48925;SDS011;39838;59.938;30.642;2023-04-29T04:23:40;3.70;;;2.60;;
48925;SDS011;39838;59.938;30.642;2023-04-29T04:26:08;4.88;;;3.05;;
48925;SDS011;39838;59.938;30.642;2023-04-29T04:28:35;5.63;;;3.17;;
48925;SDS011;39838;59.938;30.642;2023-04-29T04:31:02;4.20;;;3.33;;
48925;SDS011;39838;59.938;30.642;2023-04-29T04:33:32;5.72;;;3.28;;
48925;SDS011;39838;59.938;30.642;2023-04-29T04:35:59;4.30;;;3.10;;
48925;SDS011;39838;59.938;30.642;2023-04-29T04:38:26;4.32;;;2.85;;
48925;SDS011;39838;59.938;30.642;2023-04-29T04:40:54;5.03;;;2.97;;
48925;SDS011;39838;59.938;30.642;2023-04-29T04:43:21;5.55;;;3.22;;
48925;SDS011;39838;59.938;30.642;2023-04-29T04:45:48;3.50;;;2.72;;
48925;SDS011;39838;59.938;30.642;2023-04-29T04:48:15;2.80;;;2.50;;
48925;SDS011;39838;59.938;30.642;2023-04-29T04:50:44;8.15;;;2.53;;
48925;SDS011;39838;59.938;30.642;2023-04-29T04:53:11;4.50;;;2.55;;
48925;SDS011;39838;59.938;30.642;2023-04-29T04:55:38;3.30;;;2.63;;
48925;SDS011;39838;59.938;30.642;2023-04-29T04:58:05;3.00;;;2.47;;
48925;SDS011;39838;59.938;30.642;2023-04-29T05:00:32;3.40;;;2.60;;
48925;SDS011;39838;59.938;30.642;2023-04-29T05:02:59;3.85;;;2.85;;
48925;SDS011;39838;59.938;30.642;2023-04-29T05:05:27;2.95;;;2.60;;
48925;SDS011;39838;59.938;30.642;2023-04-29T05:07:55;5.70;;;2.80;;
48925;SDS011;39838;59.938;30.642;2023-04-29T05:10:22;4.15;;;2.90;;
48925;SDS011;39838;59.938;30.642;2023-04-29T05:12:51;4.97;;;3.00;;
48925;SDS011;39838;59.938;30.642;2023-04-29T05:15:18;4.50;;;2.80;;
48925;SDS011;39838;59.938;30.642;2023-04-29T05:17:45;4.50;;;2.70;;
48925;SDS011;39838;59.938;30.642;2023-04-29T05:20:12;5.35;;;3.03;;
48925;SDS011;39838;59.938;30.642;2023-04-29T05:22:40;5.07;;;3.20;;
48925;SDS011;39838;59.938;30.642;2023-04-29T05:25:09;6.40;;;3.67;;
48925;SDS011;39838;59.938;30.642;2023-04-29T05:27:36;6.43;;;3.80;;
48925;SDS011;39838;59.938;30.642;2023-04-29T05:30:03;6.95;;;3.70;;
48925;SDS011;39838;59.938;30.642;2023-04-29T05:32:31;5.18;;;3.40;;
48925;SDS011;39838;59.938;30.642;2023-04-29T05:34:58;6.88;;;3.70;;
48925;SDS011;39838;59.938;30.642;2023-04-29T05:37:26;6.20;;;3.83;;
48925;SDS011;39838;59.938;30.642;2023-04-29T05:39:56;5.68;;;3.60;;
48925;SDS011;39838;59.938;30.642;2023-04-29T05:42:24;5.53;;;3.40;;
48925;SDS011;39838;59.938;30.642;2023-04-29T05:44:51;6.97;;;3.10;;
48925;SDS011;39838;59.938;30.642;2023-04-29T05:47:19;4.20;;;2.90;;
48925;SDS011;39838;59.938;30.642;2023-04-29T05:49:46;4.15;;;2.97;;
48925;SDS011;39838;59.938;30.642;2023-04-29T05:52:13;4.45;;;3.10;;
48925;SDS011;39838;59.938;30.642;2023-04-29T05:54:41;4.07;;;3.13;;
48925;SDS011;39838;59.938;30.642;2023-04-29T05:57:08;5.10;;;3.20;;
48925;SDS011;39838;59.938;30.642;2023-04-29T05:59:36;6.47;;;3.30;;
48925;SDS011;39838;59.938;30.642;2023-04-29T06:02:03;7.10;;;3.45;;
48925;SDS011;39838;59.938;30.642;2023-04-29T06:04:31;5.57;;;3.70;;
48925;SDS011;39838;59.938;30.642;2023-04-29T06:06:58;4.47;;;3.10;;
48925;SDS011;39838;59.938;30.642;2023-04-29T06:09:25;4.95;;;3.63;;
48925;SDS011;39838;59.938;30.642;2023-04-29T06:11:53;5.35;;;3.78;;
48925;SDS011;39838;59.938;30.642;2023-04-29T06:14:20;6.00;;;3.90;;
48925;SDS011;39838;59.938;30.642;2023-04-29T06:16:49;5.95;;;3.67;;
48925;SDS011;39838;59.938;30.642;2023-04-29T06:19:16;5.13;;;3.72;;
48925;SDS011;39838;59.938;30.642;2023-04-29T06:21:43;6.07;;;4.10;;
48925;SDS011;39838;59.938;30.642;2023-04-29T06:24:10;4.20;;;3.40;;
48925;SDS011;39838;59.938;30.642;2023-04-29T06:26:37;4.82;;;3.55;;
48925;SDS011;39838;59.938;30.642;2023-04-29T06:29:05;4.85;;;3.55;;
48925;SDS011;39838;59.938;30.642;2023-04-29T06:31:32;5.32;;;3.75;;
48925;SDS011;39838;59.938;30.642;2023-04-29T06:34:00;4.50;;;3.30;;
48925;SDS011;39838;59.938;30.642;2023-04-29T06:36:28;5.93;;;3.58;;
48925;SDS011;39838;59.938;30.642;2023-04-29T06:38:56;6.45;;;3.85;;
48925;SDS011;39838;59.938;30.642;2023-04-29T06:41:23;4.78;;;3.90;;
48925;SDS011;39838;59.938;30.642;2023-04-29T06:43:51;7.63;;;4.28;;
48925;SDS011;39838;59.938;30.642;2023-04-29T06:46:19;9.27;;;4.10;;
48925;SDS011;39838;59.938;30.642;2023-04-29T06:48:46;7.60;;;4.30;;
48925;SDS011;39838;59.938;30.642;2023-04-29T06:51:14;5.13;;;3.88;;
48925;SDS011;39838;59.938;30.642;2023-04-29T06:53:42;5.05;;;3.85;;
48925;SDS011;39838;59.938;30.642;2023-04-29T06:56:09;5.38;;;3.97;;
48925;SDS011;39838;59.938;30.642;2023-04-29T06:58:36;5.50;;;3.70;;
48925;SDS011;39838;59.938;30.642;2023-04-29T07:01:04;7.20;;;3.95;;
48925;SDS011;39838;59.938;30.642;2023-04-29T07:03:32;5.32;;;3.83;;
48925;SDS011;39838;59.938;30.642;2023-04-29T07:06:00;5.07;;;3.30;;
48925;SDS011;39838;59.938;30.642;2023-04-29T07:08:28;4.45;;;3.40;;
48925;SDS011;39838;59.938;30.642;2023-04-29T07:10:56;7.03;;;3.40;;
48925;SDS011;39838;59.938;30.642;2023-04-29T07:13:24;6.70;;;3.40;;
48925;SDS011;39838;59.938;30.642;2023-04-29T07:15:51;6.32;;;3.55;;
48925;SDS011;39838;59.938;30.642;2023-04-29T07:18:18;6.45;;;4.00;;
48925;SDS011;39838;59.938;30.642;2023-04-29T07:20:45;9.60;;;3.80;;
48925;SDS011;39838;59.938;30.642;2023-04-29T07:23:13;4.00;;;3.20;;
48925;SDS011;39838;59.938;30.642;2023-04-29T07:25:42;6.38;;;3.60;;
48925;SDS011;39838;59.938;30.642;2023-04-29T07:28:09;5.03;;;3.17;;
48925;SDS011;39838;59.938;30.642;2023-04-29T07:30:36;4.72;;;3.33;;
48925;SDS011;39838;59.938;30.642;2023-04-29T07:33:04;8.68;;;3.90;;
48925;SDS011;39838;59.938;30.642;2023-04-29T07:35:31;5.22;;;3.63;;
48925;SDS011;39838;59.938;30.642;2023-04-29T07:37:58;7.30;;;3.22;;
48925;SDS011;39838;59.938;30.642;2023-04-29T07:40:25;3.58;;;2.90;;
48925;SDS011;39838;59.938;30.642;2023-04-29T07:42:54;4.45;;;3.03;;
48925;SDS011;39838;59.938;30.642;2023-04-29T07:45:21;5.57;;;3.72;;
48925;SDS011;39838;59.938;30.642;2023-04-29T07:47:48;5.15;;;3.70;;
48925;SDS011;39838;59.938;30.642;2023-04-29T07:50:15;5.40;;;3.90;;
48925;SDS011;39838;59.938;30.642;2023-04-29T07:52:43;5.97;;;3.95;;
48925;SDS011;39838;59.938;30.642;2023-04-29T07:55:10;8.45;;;4.15;;
48925;SDS011;39838;59.938;30.642;2023-04-29T07:57:37;6.82;;;4.03;;
48925;SDS011;39838;59.938;30.642;2023-04-29T08:00:06;8.00;;;4.10;;
48925;SDS011;39838;59.938;30.642;2023-04-29T08:02:35;8.50;;;4.03;;
48925;SDS011;39838;59.938;30.642;2023-04-29T08:05:02;10.02;;;4.05;;
48925;SDS011;39838;59.938;30.642;2023-04-29T08:07:29;6.70;;;4.28;;
48925;SDS011;39838;59.938;30.642;2023-04-29T08:09:56;6.25;;;4.53;;
48925;SDS011;39838;59.938;30.642;2023-04-29T08:12:23;6.18;;;4.20;;
48925;SDS011;39838;59.938;30.642;2023-04-29T08:14:51;6.07;;;4.18;;
48925;SDS011;39838;59.938;30.642;2023-04-29T08:17:19;6.47;;;3.92;;
48925;SDS011;39838;59.938;30.642;2023-04-29T08:19:46;7.97;;;3.92;;
48925;SDS011;39838;59.938;30.642;2023-04-29T08:22:13;4.90;;;3.92;;
48925;SDS011;39838;59.938;30.642;2023-04-29T08:24:41;6.30;;;3.78;;
48925;SDS011;39838;59.938;30.642;2023-04-29T08:27:09;5.35;;;3.47;;
48925;SDS011;39838;59.938;30.642;2023-04-29T08:29:36;3.70;;;3.00;;
48925;SDS011;39838;59.938;30.642;2023-04-29T08:32:03;8.38;;;3.53;;
48925;SDS011;39838;59.938;30.642;2023-04-29T08:34:32;4.30;;;3.30;;
48925;SDS011;39838;59.938;30.642;2023-04-29T08:37:01;6.55;;;3.28;;
48925;SDS011;39838;59.938;30.642;2023-04-29T08:39:28;5.07;;;3.05;;
48925;SDS011;39838;59.938;30.642;2023-04-29T08:41:56;4.95;;;3.70;;
48925;SDS011;39838;59.938;30.642;2023-04-29T08:44:24;6.18;;;3.67;;
48925;SDS011;39838;59.938;30.642;2023-04-29T08:46:52;5.90;;;4.25;;
48925;SDS011;39838;59.938;30.642;2023-04-29T08:49:20;3.50;;;2.88;;
48925;SDS011;39838;59.938;30.642;2023-04-29T08:51:49;7.75;;;3.20;;
48925;SDS011;39838;59.938;30.642;2023-04-29T08:54:17;5.22;;;2.42;;
48925;SDS011;39838;59.938;30.642;2023-04-29T08:56:44;3.63;;;2.50;;
48925;SDS011;39838;59.938;30.642;2023-04-29T08:59:12;3.80;;;2.10;;
48925;SDS011;39838;59.938;30.642;2023-04-29T09:01:41;2.20;;;2.00;;
48925;SDS011;39838;59.938;30.642;2023-04-29T09:04:11;2.50;;;2.30;;
48925;SDS011;39838;59.938;30.642;2023-04-29T09:06:44;2.45;;;2.10;;
48925;SDS011;39838;59.938;30.642;2023-04-29T09:09:14;4.05;;;2.58;;
48925;SDS011;39838;59.938;30.642;2023-04-29T09:11:41;8.25;;;2.90;;
48925;SDS011;39838;59.938;30.642;2023-04-29T09:14:09;13.27;;;6.90;;
48925;SDS011;39838;59.938;30.642;2023-04-29T09:16:36;7.30;;;4.50;;
48925;SDS011;39838;59.938;30.642;2023-04-29T09:19:03;4.47;;;3.10;;
48925;SDS011;39838;59.938;30.642;2023-04-29T09:21:30;4.35;;;3.45;;
48925;SDS011;39838;59.938;30.642;2023-04-29T09:23:58;5.65;;;3.50;;
48925;SDS011;39838;59.938;30.642;2023-04-29T09:26:27;6.18;;;3.88;;
48925;SDS011;39838;59.938;30.642;2023-04-29T09:29:06;5.28;;;3.40;;
48925;SDS011;39838;59.938;30.642;2023-04-29T09:31:36;5.32;;;3.25;;
48925;SDS011;39838;59.938;30.642;2023-04-29T09:34:04;4.53;;;3.67;;
48925;SDS011;39838;59.938;30.642;2023-04-29T09:36:38;4.20;;;3.10;;
48925;SDS011;39838;59.938;30.642;2023-04-29T09:39:09;4.90;;;3.20;;
48925;SDS011;39838;59.938;30.642;2023-04-29T09:41:40;5.15;;;2.70;;
48925;SDS011;39838;59.938;30.642;2023-04-29T09:44:22;4.13;;;2.90;;
48925;SDS011;39838;59.938;30.642;2023-04-29T09:46:53;9.70;;;5.00;;
48925;SDS011;39838;59.938;30.642;2023-04-29T09:49:21;6.63;;;3.78;;
48925;SDS011;39838;59.938;30.642;2023-04-29T09:51:53;3.78;;;2.67;;
48925;SDS011;39838;59.938;30.642;2023-04-29T09:54:21;3.17;;;2.30;;
48925;SDS011;39838;59.938;30.642;2023-04-29T09:56:51;3.58;;;2.63;;
48925;SDS011;39838;59.938;30.642;2023-04-29T09:59:19;3.40;;;2.45;;
48925;SDS011;39838;59.938;30.642;2023-04-29T10:01:47;2.63;;;2.20;;
48925;SDS011;39838;59.938;30.642;2023-04-29T10:04:16;3.05;;;2.40;;
48925;SDS011;39838;59.938;30.642;2023-04-29T10:06:45;3.50;;;2.65;;
48925;SDS011;39838;59.938;30.642;2023-04-29T10:09:16;5.20;;;2.40;;
48925;SDS011;39838;59.938;30.642;2023-04-29T10:11:44;4.57;;;2.33;;
48925;SDS011;39838;59.938;30.642;2023-04-29T10:14:14;4.18;;;2.63;;
48925;SDS011;39838;59.938;30.642;2023-04-29T10:16:46;3.88;;;2.30;;
48925;SDS011;39838;59.938;30.642;2023-04-29T10:19:14;2.85;;;2.20;;
48925;SDS011;39838;59.938;30.642;2023-04-29T10:21:50;4.80;;;2.50;;
48925;SDS011;39838;59.938;30.642;2023-04-29T10:24:20;3.03;;;2.40;;
48925;SDS011;39838;59.938;30.642;2023-04-29T10:26:48;4.20;;;2.90;;
48925;SDS011;39838;59.938;30.642;2023-04-29T10:29:18;5.47;;;3.17;;
48925;SDS011;39838;59.938;30.642;2023-04-29T10:31:47;4.97;;;3.00;;
48925;SDS011;39838;59.938;30.642;2023-04-29T10:34:16;4.75;;;3.15;;
48925;SDS011;39838;59.938;30.642;2023-04-29T10:36:43;5.93;;;2.70;;
48925;SDS011;39838;59.938;30.642;2023-04-29T10:39:16;4.78;;;3.00;;
48925;SDS011;39838;59.938;30.642;2023-04-29T10:41:50;7.13;;;2.80;;
48925;SDS011;39838;59.938;30.642;2023-04-29T10:44:19;5.05;;;2.40;;
48925;SDS011;39838;59.938;30.642;2023-04-29T10:46:47;4.00;;;2.40;;
48925;SDS011;39838;59.938;30.642;2023-04-29T10:49:14;3.22;;;2.33;;
48925;SDS011;39838;59.938;30.642;2023-04-29T10:51:42;2.88;;;2.22;;
48925;SDS011;39838;59.938;30.642;2023-04-29T10:54:11;6.75;;;2.47;;
48925;SDS011;39838;59.938;30.642;2023-04-29T10:56:40;4.50;;;2.60;;
48925;SDS011;39838;59.938;30.642;2023-04-29T10:59:09;4.97;;;2.70;;
48925;SDS011;39838;59.938;30.642;2023-04-29T11:01:43;3.00;;;2.40;;
48925;SDS011;39838;59.938;30.642;2023-04-29T11:04:12;3.13;;;2.30;;
48925;SDS011;39838;59.938;30.642;2023-04-29T11:06:41;4.35;;;2.20;;
48925;SDS011;39838;59.938;30.642;2023-04-29T11:09:18;3.20;;;2.40;;
48925;SDS011;39838;59.938;30.642;2023-04-29T11:11:56;3.57;;;2.43;;
48925;SDS011;39838;59.938;30.642;2023-04-29T11:14:29;4.18;;;2.65;;
48925;SDS011;39838;59.938;30.642;2023-04-29T11:17:00;5.57;;;3.10;;
48925;SDS011;39838;59.938;30.642;2023-04-29T11:19:31;3.95;;;3.03;;
48925;SDS011;39838;59.938;30.642;2023-04-29T11:24:52;3.97;;;2.97;;
48925;SDS011;39838;59.938;30.642;2023-04-29T11:27:22;5.00;;;2.72;;
48925;SDS011;39838;59.938;30.642;2023-04-29T11:29:51;4.22;;;2.75;;
48925;SDS011;39838;59.938;30.642;2023-04-29T11:32:24;4.65;;;2.90;;
48925;SDS011;39838;59.938;30.642;2023-04-29T11:34:51;4.55;;;2.72;;
48925;SDS011;39838;59.938;30.642;2023-04-29T11:37:19;5.10;;;2.58;;
48925;SDS011;39838;59.938;30.642;2023-04-29T11:39:48;7.22;;;3.17;;
48925;SDS011;39838;59.938;30.642;2023-04-29T11:42:18;4.40;;;2.88;;
48925;SDS011;39838;59.938;30.642;2023-04-29T11:44:46;3.95;;;2.72;;
48925;SDS011;39838;59.938;30.642;2023-04-29T11:47:17;4.45;;;2.72;;
48925;SDS011;39838;59.938;30.642;2023-04-29T11:49:47;5.30;;;3.00;;
48925;SDS011;39838;59.938;30.642;2023-04-29T11:52:14;5.43;;;2.88;;
48925;SDS011;39838;59.938;30.642;2023-04-29T11:54:42;5.18;;;2.80;;
48925;SDS011;39838;59.938;30.642;2023-04-29T11:57:09;3.90;;;3.00;;
48925;SDS011;39838;59.938;30.642;2023-04-29T11:59:36;4.55;;;2.80;;
48925;SDS011;39838;59.938;30.642;2023-04-29T12:02:04;5.78;;;3.15;;
48925;SDS011;39838;59.938;30.642;2023-04-29T12:04:32;5.35;;;3.25;;
48925;SDS011;39838;59.938;30.642;2023-04-29T12:07:01;4.68;;;3.05;;
48925;SDS011;39838;59.938;30.642;2023-04-29T12:09:38;4.60;;;3.20;;
48925;SDS011;39838;59.938;30.642;2023-04-29T12:12:07;5.43;;;3.35;;
48925;SDS011;39838;59.938;30.642;2023-04-29T12:14:34;4.40;;;3.35;;
48925;SDS011;39838;59.938;30.642;2023-04-29T12:17:02;6.30;;;3.92;;
48925;SDS011;39838;59.938;30.642;2023-04-29T12:19:30;5.50;;;3.38;;
48925;SDS011;39838;59.938;30.642;2023-04-29T12:21:57;8.73;;;3.53;;
48925;SDS011;39838;59.938;30.642;2023-04-29T12:24:26;4.30;;;3.00;;
48925;SDS011;39838;59.938;30.642;2023-04-29T12:26:53;3.97;;;3.15;;
48925;SDS011;39838;59.938;30.642;2023-04-29T12:29:23;3.97;;;2.50;;
48925;SDS011;39838;59.938;30.642;2023-04-29T12:31:51;5.95;;;2.78;;
48925;SDS011;39838;59.938;30.642;2023-04-29T12:34:23;3.83;;;2.60;;
48925;SDS011;39838;59.938;30.642;2023-04-29T12:36:53;4.22;;;2.33;;
48925;SDS011;39838;59.938;30.642;2023-04-29T12:39:22;5.78;;;2.50;;
48925;SDS011;39838;59.938;30.642;2023-04-29T12:41:53;7.38;;;2.35;;
48925;SDS011;39838;59.938;30.642;2023-04-29T12:44:22;5.35;;;2.60;;
48925;SDS011;39838;59.938;30.642;2023-04-29T12:46:49;5.05;;;2.88;;
48925;SDS011;39838;59.938;30.642;2023-04-29T12:49:18;4.22;;;2.78;;
48925;SDS011;39838;59.938;30.642;2023-04-29T12:51:45;5.00;;;3.00;;
48925;SDS011;39838;59.938;30.642;2023-04-29T12:54:12;4.85;;;2.70;;
48925;SDS011;39838;59.938;30.642;2023-04-29T12:56:40;3.65;;;2.60;;
48925;SDS011;39838;59.938;30.642;2023-04-29T12:59:09;4.95;;;2.80;;
48925;SDS011;39838;59.938;30.642;2023-04-29T13:01:36;3.97;;;2.40;;
48925;SDS011;39838;59.938;30.642;2023-04-29T13:04:04;6.32;;;2.30;;
48925;SDS011;39838;59.938;30.642;2023-04-29T13:06:33;2.50;;;2.22;;
48925;SDS011;39838;59.938;30.642;2023-04-29T13:09:04;7.07;;;2.45;;
48925;SDS011;39838;59.938;30.642;2023-04-29T13:11:32;3.58;;;2.55;;
48925;SDS011;39838;59.938;30.642;2023-04-29T13:13:59;4.13;;;2.50;;
48925;SDS011;39838;59.938;30.642;2023-04-29T13:16:28;3.42;;;2.55;;
48925;SDS011;39838;59.938;30.642;2023-04-29T13:18:55;5.05;;;2.60;;
48925;SDS011;39838;59.938;30.642;2023-04-29T13:21:22;3.85;;;2.70;;
48925;SDS011;39838;59.938;30.642;2023-04-29T13:23:49;4.38;;;2.50;;
48925;SDS011;39838;59.938;30.642;2023-04-29T13:26:17;5.10;;;2.60;;
48925;SDS011;39838;59.938;30.642;2023-04-29T13:28:44;3.25;;;2.30;;
48925;SDS011;39838;59.938;30.642;2023-04-29T13:31:11;2.60;;;2.28;;
48925;SDS011;39838;59.938;30.642;2023-04-29T13:33:40;6.30;;;2.40;;
48925;SDS011;39838;59.938;30.642;2023-04-29T13:36:07;4.07;;;2.20;;
48925;SDS011;39838;59.938;30.642;2023-04-29T13:38:35;2.83;;;2.30;;
48925;SDS011;39838;59.938;30.642;2023-04-29T13:41:02;4.10;;;2.30;;
48925;SDS011;39838;59.938;30.642;2023-04-29T13:43:29;4.72;;;2.58;;
48925;SDS011;39838;59.938;30.642;2023-04-29T13:45:56;4.10;;;2.60;;
48925;SDS011;39838;59.938;30.642;2023-04-29T13:48:24;6.72;;;2.95;;
48925;SDS011;39838;59.938;30.642;2023-04-29T13:50:52;4.50;;;3.15;;
48925;SDS011;39838;59.938;30.642;2023-04-29T13:53:20;4.60;;;2.80;;
48925;SDS011;39838;59.938;30.642;2023-04-29T13:55:47;5.57;;;2.75;;
48925;SDS011;39838;59.938;30.642;2023-04-29T13:58:14;6.15;;;3.05;;
48925;SDS011;39838;59.938;30.642;2023-04-29T14:00:41;4.40;;;2.55;;
48925;SDS011;39838;59.938;30.642;2023-04-29T14:03:08;5.70;;;3.00;;
48925;SDS011;39838;59.938;30.642;2023-04-29T14:05:36;4.85;;;3.20;;
48925;SDS011;39838;59.938;30.642;2023-04-29T14:08:04;9.25;;;2.72;;
48925;SDS011;39838;59.938;30.642;2023-04-29T14:10:31;6.53;;;2.50;;
48925;SDS011;39838;59.938;30.642;2023-04-29T14:12:59;8.43;;;2.60;;
48925;SDS011;39838;59.938;30.642;2023-04-29T14:15:27;5.50;;;2.60;;
48925;SDS011;39838;59.938;30.642;2023-04-29T14:17:54;4.10;;;2.65;;
48925;SDS011;39838;59.938;30.642;2023-04-29T14:20:21;3.63;;;2.15;;
48925;SDS011;39838;59.938;30.642;2023-04-29T14:22:49;3.35;;;1.90;;
48925;SDS011;39838;59.938;30.642;2023-04-29T14:25:17;6.38;;;2.25;;
48925;SDS011;39838;59.938;30.642;2023-04-29T14:27:46;5.47;;;1.92;;
48925;SDS011;39838;59.938;30.642;2023-04-29T14:30:13;4.00;;;1.77;;
48925;SDS011;39838;59.938;30.642;2023-04-29T14:32:41;4.47;;;2.45;;
48925;SDS011;39838;59.938;30.642;2023-04-29T14:35:08;4.05;;;2.70;;
48925;SDS011;39838;59.938;30.642;2023-04-29T14:37:36;5.30;;;2.17;;
48925;SDS011;39838;59.938;30.642;2023-04-29T14:40:04;5.97;;;2.30;;
48925;SDS011;39838;59.938;30.642;2023-04-29T14:42:35;4.97;;;2.15;;